Time;durP1;ratioP1;P1;durP2;ratioP2;P2;SDS_P1;SDS_P2;PMS_P1;PMS_P2;Temp;Humidity;BMP_temperature;BMP_pressure;BME280_temperature;BME280_humidity;BME280_pressure;Samples;Min_cycle;Max_cycle;Signal;HPM_P1;HPM_P2
2022/11/21 00:00:48;;;;;;;110.60;80.07;;;;;;;7.88;81.91;98742.13;5091768;28;20103;-48
2022/11/21 00:03:14;;;;;;;114.70;83.88;;;;;;;7.97;82.29;98736.63;5095056;28;20028;-48
2022/11/21 00:05:42;;;;;;;80.18;56.15;;;;;;;8.01;81.75;98737.09;5093630;28;20097;-48
2022/11/21 00:08:09;;;;;;;87.47;59.83;;;;;;;8.00;80.76;98731.03;5076976;28;20028;-48
2022/11/21 00:10:36;;;;;;;46.47;27.10;;;;;;;7.93;80.80;98731.97;5094779;28;20024;-48
2022/11/21 00:13:02;;;;;;;79.72;42.05;;;;;;;7.86;80.72;98724.00;5093482;28;20035;-48
2022/11/21 00:15:28;;;;;;;68.10;43.47;;;;;;;7.97;80.92;98723.56;5093491;28;20063;-48
2022/11/21 00:17:54;;;;;;;73.95;50.92;;;;;;;8.07;81.05;98717.22;5093258;28;20071;-48
2022/11/21 00:20:21;;;;;;;882.08;464.02;;;;;;;8.24;80.54;98717.84;5093252;28;20048;-48
2022/11/21 00:22:47;;;;;;;243.45;145.25;;;;;;;8.30;80.30;98715.28;5094595;28;20615;-48
2022/11/21 00:25:13;;;;;;;43.35;31.50;;;;;;;8.12;79.30;98705.22;5094291;28;20056;-48
2022/11/21 00:27:39;;;;;;;21.90;15.52;;;;;;;8.07;79.81;98704.97;5094519;28;20020;-48
2022/11/21 00:30:07;;;;;;;19.98;11.85;;;;;;;8.12;79.86;98715.69;5093145;28;20497;-48
2022/11/21 00:32:33;;;;;;;52.65;23.05;;;;;;;8.15;79.44;98701.47;5094473;28;20070;-48
2022/11/21 00:34:59;;;;;;;22.90;10.68;;;;;;;8.16;79.69;98701.25;5094324;28;20055;-48
2022/11/21 00:37:24;;;;;;;30.42;20.20;;;;;;;8.11;80.00;98689.72;5092976;28;20024;-48
2022/11/21 00:39:50;;;;;;;17.40;11.45;;;;;;;8.25;79.92;98695.91;5094541;28;20389;-48
2022/11/21 00:42:16;;;;;;;11.52;8.60;;;;;;;8.44;79.95;98691.94;5092906;28;20517;-48
2022/11/21 00:44:41;;;;;;;18.98;12.95;;;;;;;8.56;79.38;98693.03;5094201;28;20059;-48
2022/11/21 00:47:07;;;;;;;26.40;20.00;;;;;;;8.71;79.65;98688.56;5092808;28;20094;-48
2022/11/21 00:49:32;;;;;;;19.63;13.38;;;;;;;8.88;79.02;98686.47;5092781;28;20024;-48
2022/11/21 00:51:58;;;;;;;15.23;9.32;;;;;;;8.82;78.00;98683.81;5092687;28;20052;-48
2022/11/21 00:54:24;;;;;;;51.28;44.70;;;;;;;8.70;78.75;98693.97;5093980;28;20024;-48
2022/11/21 00:56:49;;;;;;;11.07;8.38;;;;;;;8.85;78.67;98691.28;5093845;28;20043;-48
2022/11/21 00:59:15;;;;;;;17.02;8.90;;;;;;;8.70;77.59;98684.31;5093979;28;20047;-48
2022/11/21 01:01:40;;;;;;;11.48;8.05;;;;;;;8.46;76.40;98676.84;5093845;28;20091;-48
2022/11/21 01:04:06;;;;;;;16.40;10.38;;;;;;;8.23;76.75;98672.59;5093884;28;20032;-48
2022/11/21 01:06:32;;;;;;;15.65;11.05;;;;;;;8.27;77.70;98663.38;5092474;28;20024;-48
2022/11/21 01:08:58;;;;;;;16.33;11.95;;;;;;;8.46;76.78;98669.81;5093979;28;20028;-48
2022/11/21 01:11:23;;;;;;;24.15;16.70;;;;;;;8.59;76.64;98669.13;5093714;28;20421;-48
2022/11/21 01:13:52;;;;;;;26.38;19.67;;;;;;;8.86;77.20;98675.41;5091406;28;20074;-48
2022/11/21 01:16:20;;;;;;;30.27;19.77;;;;;;;9.32;77.03;98667.06;5093475;28;20480;-48
2022/11/21 01:18:46;;;;;;;18.92;15.82;;;;;;;9.74;75.88;98674.94;5075365;28;20035;-48
2022/11/21 01:21:18;;;;;;;16.88;13.18;;;;;;;9.96;74.97;98650.22;5093556;28;20020;-48
2022/11/21 01:23:44;;;;;;;10.43;7.97;;;;;;;10.00;74.02;98656.69;5091933;28;20028;-49
2022/11/21 01:26:12;;;;;;;11.27;8.88;;;;;;;9.69;72.35;98651.91;5093480;28;20035;-48
2022/11/21 01:28:38;;;;;;;11.88;8.98;;;;;;;9.36;73.21;98644.72;5093280;28;20035;-48
2022/11/21 01:31:07;;;;;;;12.02;9.10;;;;;;;9.30;73.47;98640.25;5093236;28;20020;-48
2022/11/21 01:33:34;;;;;;;13.27;10.38;;;;;;;9.36;74.21;98642.09;5093207;28;20577;-48
2022/11/21 01:36:14;;;;;;;10.40;7.88;;;;;;;9.40;74.44;98634.66;5093182;28;20020;-48
2022/11/21 01:38:42;;;;;;;14.20;11.68;;;;;;;9.25;74.99;98624.28;5093097;28;20032;-48
2022/11/21 01:41:09;;;;;;;12.88;10.10;;;;;;;9.01;75.69;98620.31;5093105;28;20027;-48
2022/11/21 01:43:36;;;;;;;9.73;7.32;;;;;;;8.63;75.97;98618.03;5093044;28;20432;-48
2022/11/21 01:46:07;;;;;;;12.25;7.57;;;;;;;8.09;76.32;98626.38;5093055;28;20024;-48
2022/11/21 01:48:39;;;;;;;15.52;10.38;;;;;;;7.83;78.52;98626.88;5091647;28;20059;-48
2022/11/21 01:51:17;;;;;;;9.68;7.05;;;;;;;8.00;79.36;98616.03;5091638;28;20118;-48
2022/11/21 01:53:50;;;;;;;24.02;13.93;;;;;;;8.05;79.63;98612.06;5091633;28;20032;-48
2022/11/21 01:56:16;;;;;;;97.40;60.67;;;;;;;8.18;79.40;98617.41;5091573;28;20119;-48
2022/11/21 01:58:44;;;;;;;9.63;6.38;;;;;;;8.15;78.77;98607.34;5091430;28;20479;-48
2022/11/21 02:01:09;;;;;;;11.65;6.07;;;;;;;7.95;78.70;98602.72;5091486;28;20073;-48
2022/11/21 02:03:37;;;;;;;9.93;5.82;;;;;;;7.72;78.36;98592.41;5091421;28;20043;-47
2022/11/21 02:06:07;;;;;;;10.70;6.70;;;;;;;7.56;79.13;98597.84;5092685;28;20103;-48
2022/11/21 02:08:32;;;;;;;14.73;10.75;;;;;;;7.50;79.52;98602.00;5091352;28;20020;-48
2022/11/21 02:11:24;;;;;;;11.93;7.10;;;;;;;7.53;80.11;98585.97;5091391;28;20115;-48
2022/11/21 02:13:50;;;;;;;29.02;21.05;;;;;;;7.68;80.84;98601.63;5092425;28;20127;-48
2022/11/21 02:16:16;;;;;;;18.60;13.98;;;;;;;8.08;82.10;98588.16;5092487;28;20091;-48
2022/11/21 02:18:42;;;;;;;19.88;11.70;;;;;;;8.44;82.09;98579.47;5092315;28;20448;-48
2022/11/21 02:21:30;;;;;;;12.10;9.75;;;;;;;8.57;81.96;98587.41;5092354;28;20102;-48
2022/11/21 02:24:27;;;;;;;9.88;6.55;;;;;;;8.29;81.51;98582.94;5090738;28;20078;-48
2022/11/21 02:26:53;;;;;;;13.57;7.90;;;;;;;7.66;81.96;98587.13;5092321;28;20058;-48
2022/11/21 02:29:19;;;;;;;12.82;9.32;;;;;;;7.36;84.48;98580.16;5092267;28;20065;-48
2022/11/21 02:31:45;;;;;;;25.42;14.90;;;;;;;7.68;86.82;98585.13;5092215;28;20028;-48
2022/11/21 02:34:11;;;;;;;21.52;12.75;;;;;;;7.77;87.33;98574.41;5090879;28;20027;-48
2022/11/21 02:36:45;;;;;;;24.55;13.57;;;;;;;7.72;87.85;98570.72;5092068;28;20512;-48
2022/11/21 02:39:26;;;;;;;13.45;10.45;;;;;;;7.68;88.10;98567.66;5092118;28;20536;-47
2022/11/21 02:42:03;;;;;;;13.98;10.30;;;;;;;7.91;90.43;98554.44;5092123;28;20036;-48
2022/11/21 02:44:37;;;;;;;12.48;9.18;;;;;;;8.20;90.86;98532.56;5092044;28;20035;-48
2022/11/21 02:47:03;;;;;;;11.95;7.88;;;;;;;8.35;90.14;98531.69;5092085;28;20055;-48
2022/11/21 02:50:08;;;;;;;10.77;7.18;;;;;;;8.25;89.75;98528.59;5091980;28;20542;-48
2022/11/21 02:52:34;;;;;;;7.78;6.03;;;;;;;8.22;90.12;98519.31;5091458;28;20040;-48
2022/11/21 02:54:59;;;;;;;7.28;6.35;;;;;;;8.12;89.96;98513.63;5091980;28;20103;-48
2022/11/21 02:57:25;;;;;;;10.68;6.78;;;;;;;7.96;89.03;98519.91;5091858;28;20040;-48
2022/11/21 02:59:51;;;;;;;7.82;5.82;;;;;;;7.73;88.91;98515.69;5090844;28;20367;-47
2022/11/21 03:02:16;;;;;;;7.20;5.25;;;;;;;7.56;89.21;98509.88;5091874;28;20024;-48
2022/11/21 03:04:42;;;;;;;10.23;7.30;;;;;;;7.48;89.94;98506.56;5090546;28;20020;-48
2022/11/21 03:07:07;;;;;;;7.90;5.85;;;;;;;7.49;90.04;98500.38;5090493;28;20036;-48
2022/11/21 03:09:33;;;;;;;8.93;5.80;;;;;;;7.59;90.90;98503.50;5091758;28;20024;-48
2022/11/21 03:11:59;;;;;;;9.57;5.88;;;;;;;7.87;92.26;98495.72;5091753;28;20153;-48
2022/11/21 03:14:24;;;;;;;7.78;5.85;;;;;;;8.26;92.33;98483.97;5091792;28;20060;-47
2022/11/21 03:16:50;;;;;;;9.25;6.57;;;;;;;8.30;90.96;98479.97;5091582;28;20035;-47
2022/11/21 03:19:15;;;;;;;7.47;5.32;;;;;;;8.20;90.50;98484.72;5091702;28;20049;-48
2022/11/21 03:21:41;;;;;;;10.32;5.00;;;;;;;7.95;89.75;98471.28;5091668;28;20103;-48
2022/11/21 03:24:07;;;;;;;8.73;5.28;;;;;;;7.70;89.06;98466.41;5091490;28;20044;-48
2022/11/21 03:26:32;;;;;;;12.45;5.18;;;;;;;7.59;89.79;98466.94;5091921;28;20027;-48
2022/11/21 03:28:58;;;;;;;7.80;4.88;;;;;;;7.69;90.85;98456.97;5091604;28;20028;-47
2022/11/21 03:31:27;;;;;;;8.38;4.97;;;;;;;7.88;91.18;98447.69;5090320;28;20028;-48
2022/11/21 03:33:52;;;;;;;8.30;5.85;;;;;;;7.97;90.41;98446.56;5090280;28;20024;-48
2022/11/21 03:36:18;;;;;;;8.80;4.90;;;;;;;8.15;90.62;98442.69;5091639;28;20031;-48
2022/11/21 03:38:43;;;;;;;11.82;5.32;;;;;;;8.32;90.50;98433.53;5094073;28;20035;-48
2022/11/21 03:41:28;;;;;;;11.48;4.85;;;;;;;8.37;89.28;98432.94;5094133;28;20024;-48
2022/11/21 03:43:55;;;;;;;18.17;8.63;;;;;;;8.27;89.30;98430.69;5095692;28;20036;-48
2022/11/21 03:46:22;;;;;;;10.20;5.28;;;;;;;8.18;88.93;98419.56;5095274;28;20016;-48
2022/11/21 03:48:47;;;;;;;10.80;5.68;;;;;;;7.92;87.93;98424.59;5095269;28;20113;-48
2022/11/21 03:51:13;;;;;;;12.93;6.60;;;;;;;7.93;89.32;98413.97;5094040;28;20028;-48
2022/11/21 03:53:41;;;;;;;8.98;5.75;;;;;;;8.06;90.04;98415.84;5095217;28;20085;-48
2022/11/21 03:56:10;;;;;;;8.73;5.70;;;;;;;8.04;89.41;98401.38;5095174;28;20031;-48
2022/11/21 03:58:35;;;;;;;13.85;6.25;;;;;;;7.85;88.75;98402.81;5095089;28;20544;-48
2022/11/21 04:01:01;;;;;;;9.57;6.45;;;;;;;7.79;89.49;98401.81;5095061;28;20020;-48
2022/11/21 04:03:27;;;;;;;48.42;21.65;;;;;;;7.98;90.25;98395.09;5095000;28;20028;-47
2022/11/21 04:05:52;;;;;;;28.20;14.65;;;;;;;8.29;90.94;98391.25;5094939;28;20016;-48
2022/11/21 04:08:18;;;;;;;24.35;12.65;;;;;;;8.44;89.95;98396.41;5094901;28;20486;-48
2022/11/21 04:10:48;;;;;;;9.43;6.10;;;;;;;8.50;89.30;98398.25;5094904;28;20054;-48
2022/11/21 04:13:13;;;;;;;8.38;5.35;;;;;;;8.46;89.32;98391.78;5093544;28;20035;-47
2022/11/21 04:15:43;;;;;;;10.68;4.88;;;;;;;8.49;88.62;98399.25;5094810;28;20024;-47
2022/11/21 04:18:09;;;;;;;7.88;4.32;;;;;;;8.36;88.31;98392.13;5076674;28;20052;-48
2022/11/21 04:20:35;;;;;;;8.52;4.30;;;;;;;8.31;88.55;98391.88;5094667;28;20024;-47
2022/11/21 04:23:01;;;;;;;7.43;4.68;;;;;;;8.43;89.19;98395.63;5094618;28;20452;-47
2022/11/21 04:25:27;;;;;;;8.98;6.03;;;;;;;8.40;88.60;98391.53;5093042;28;20055;-47
2022/11/21 04:27:56;;;;;;;6.97;4.82;;;;;;;8.27;87.76;98386.25;5094544;28;20548;-47
2022/11/21 04:30:22;;;;;;;8.57;5.40;;;;;;;8.12;87.82;98377.69;5094466;28;20046;-47
2022/11/21 04:32:51;;;;;;;7.03;5.40;;;;;;;7.93;88.20;98376.59;5094496;28;20012;-47
2022/11/21 04:35:17;;;;;;;7.18;5.60;;;;;;;7.87;88.67;98386.00;5094405;28;20028;-48
2022/11/21 04:37:43;;;;;;;7.00;4.50;;;;;;;7.86;89.51;98370.50;5094306;28;20027;-47
2022/11/21 04:40:09;;;;;;;8.38;4.70;;;;;;;7.89;89.42;98362.28;5094524;28;20405;-47
2022/11/21 04:42:36;;;;;;;8.52;4.68;;;;;;;8.07;90.06;98354.75;5094312;28;20020;-47
2022/11/21 04:45:02;;;;;;;14.32;5.63;;;;;;;8.25;90.26;98350.81;5092943;28;20028;-47
2022/11/21 04:47:27;;;;;;;37.15;7.35;;;;;;;8.39;90.16;98348.09;5092848;28;20040;-47
2022/11/21 04:49:53;;;;;;;19.52;6.50;;;;;;;8.50;89.56;98354.59;5092907;28;20063;-48
2022/11/21 04:52:19;;;;;;;20.15;5.78;;;;;;;8.67;89.91;98354.25;5092771;28;20035;-47
2022/11/21 04:54:44;;;;;;;19.15;5.43;;;;;;;8.77;89.16;98354.69;5092723;28;20028;-48
2022/11/21 04:57:10;;;;;;;82.05;10.30;;;;;;;8.72;88.27;98342.19;5093963;28;20055;-47
2022/11/21 04:59:36;;;;;;;163.90;14.55;;;;;;;8.57;88.33;98349.38;5092644;28;20081;-48
2022/11/21 05:02:02;;;;;;;41.05;6.05;;;;;;;8.71;89.27;98345.00;5092565;28;20383;-47
2022/11/21 05:04:28;;;;;;;13.55;5.90;;;;;;;8.75;88.56;98343.59;5094095;28;20028;-47
2022/11/21 05:06:53;;;;;;;15.20;4.95;;;;;;;8.62;88.05;98347.00;5092608;28;20555;-48
2022/11/21 05:09:19;;;;;;;23.83;5.93;;;;;;;8.31;87.38;98348.25;5092463;28;20028;-48
2022/11/21 05:14:29;;;;;;;248.75;19.00;;;;;;;7.64;87.81;98341.78;5093974;28;20089;-47
2022/11/21 05:16:54;;;;;;;138.70;12.57;;;;;;;7.46;88.25;98329.22;5093536;28;20420;-47
2022/11/21 05:19:20;;;;;;;98.85;9.82;;;;;;;7.35;88.39;98330.53;5093574;28;20530;-47
2022/11/21 05:21:46;;;;;;;26.70;6.95;;;;;;;7.49;90.28;98335.88;5092181;28;20024;-48
2022/11/21 05:24:11;;;;;;;30.30;7.82;;;;;;;7.45;89.26;98324.19;5091908;28;20430;-48
2022/11/21 05:26:37;;;;;;;27.23;7.15;;;;;;;7.42;89.88;98327.16;5092036;28;20040;-47
2022/11/21 05:29:03;;;;;;;21.05;7.30;;;;;;;7.30;89.08;98317.22;5093383;28;20020;-47
2022/11/21 05:31:29;;;;;;;31.52;7.00;;;;;;;7.16;88.66;98318.94;5092002;28;20424;-47
2022/11/21 05:33:55;;;;;;;16.83;7.50;;;;;;;6.98;89.25;98308.09;5093264;28;20021;-47
2022/11/21 05:36:20;;;;;;;31.33;7.03;;;;;;;6.80;88.95;98301.53;5091898;28;20482;-47
2022/11/21 05:38:46;;;;;;;63.20;8.85;;;;;;;6.82;89.96;98290.91;5093370;28;20024;-47
2022/11/21 05:41:11;;;;;;;49.85;8.57;;;;;;;6.85;90.54;98287.13;5093102;28;20497;-47
2022/11/21 05:43:46;;;;;;;44.85;8.50;;;;;;;6.86;90.51;98288.72;5091755;28;20043;-47
2022/11/21 05:46:21;;;;;;;180.32;15.77;;;;;;;6.76;89.80;98286.44;5091727;28;20105;-47
2022/11/21 05:48:48;;;;;;;51.70;9.13;;;;;;;6.67;89.66;98284.94;5093334;28;20040;-47
2022/11/21 05:51:15;;;;;;;37.97;9.10;;;;;;;6.59;90.57;98289.28;5091653;28;20039;-47
2022/11/21 05:53:40;;;;;;;19.02;6.63;;;;;;;6.60;90.54;98279.69;5092928;28;20017;-47
2022/11/21 05:56:08;;;;;;;21.23;6.60;;;;;;;6.86;91.92;98273.91;5092854;28;20016;-47
2022/11/21 05:58:34;;;;;;;39.65;7.38;;;;;;;7.07;91.21;98264.47;5092370;28;20103;-47
2022/11/21 06:01:01;;;;;;;21.38;6.63;;;;;;;7.34;91.81;98258.44;5092793;28;20043;-47
2022/11/21 06:03:30;;;;;;;71.70;26.98;;;;;;;7.45;90.69;98256.31;5092742;28;20028;-47
2022/11/21 06:06:07;;;;;;;22.95;11.57;;;;;;;7.48;91.12;98251.50;5092649;28;20375;-47
2022/11/21 06:09:23;;;;;;;16.10;8.50;;;;;;;7.68;91.07;98232.53;5092657;28;20032;-47
2022/11/21 06:11:48;;;;;;;16.98;7.28;;;;;;;7.79;91.15;98230.19;5091519;28;20084;-47
2022/11/21 06:14:14;;;;;;;19.65;9.73;;;;;;;7.69;90.59;98227.13;5092538;28;20020;-47
2022/11/21 06:16:39;;;;;;;15.85;7.57;;;;;;;7.69;90.78;98215.88;5091039;28;20173;-47
2022/11/21 06:19:05;;;;;;;16.63;8.30;;;;;;;8.16;93.41;98211.66;5091172;28;20016;-47
2022/11/21 06:21:33;;;;;;;22.45;11.23;;;;;;;8.57;93.80;98208.16;5092364;28;20023;-47
2022/11/21 06:23:59;;;;;;;10.38;6.80;;;;;;;8.74;93.35;98187.66;5092112;28;20055;-48
2022/11/21 06:26:27;;;;;;;8.23;5.38;;;;;;;8.70;92.20;98181.22;5074118;28;20025;-47
2022/11/21 06:28:53;;;;;;;8.63;4.78;;;;;;;8.57;90.98;98176.75;5092279;28;20043;-47
2022/11/21 06:31:22;;;;;;;11.43;4.63;;;;;;;8.20;89.43;98166.63;5092263;28;20154;-47
2022/11/21 06:33:52;;;;;;;19.75;10.02;;;;;;;7.87;89.21;98161.31;5090873;28;20036;-47
2022/11/21 06:36:18;;;;;;;14.25;7.07;;;;;;;7.78;89.96;98160.66;5073992;28;20077;-47
2022/11/21 06:38:44;;;;;;;58.33;18.70;;;;;;;7.70;90.11;98153.00;5092118;28;20028;-47
2022/11/21 06:41:19;;;;;;;36.13;12.27;;;;;;;8.01;91.68;98146.47;5090856;28;20394;-47
2022/11/21 06:43:45;;;;;;;18.42;7.13;;;;;;;8.44;92.80;98146.19;5090896;28;20425;-48
2022/11/21 06:46:12;;;;;;;18.90;9.65;;;;;;;8.56;91.23;98143.78;5092310;28;20700;-47
2022/11/21 06:48:38;;;;;;;23.80;11.18;;;;;;;8.50;90.17;98147.19;5092073;28;20370;-47
2022/11/21 06:51:12;;;;;;;26.25;10.73;;;;;;;8.48;89.25;98152.63;5091994;28;20024;-47
2022/11/21 06:53:38;;;;;;;38.50;12.90;;;;;;;8.46;89.23;98148.59;5091949;28;20470;-47
2022/11/21 06:56:04;;;;;;;38.60;12.57;;;;;;;8.58;89.86;98145.19;5090651;28;20112;-47
2022/11/21 06:58:30;;;;;;;16.27;7.22;;;;;;;8.51;88.65;98140.94;5091840;28;20444;-47
2022/11/21 07:00:57;;;;;;;12.82;7.20;;;;;;;8.36;87.65;98135.88;5090623;28;20103;-47
2022/11/21 07:03:23;;;;;;;11.68;7.53;;;;;;;8.26;86.98;98125.00;5091882;28;20081;-48
2022/11/21 07:05:51;;;;;;;15.93;6.88;;;;;;;8.18;87.19;98126.78;5091916;28;20383;-48
2022/11/21 07:08:17;;;;;;;21.17;13.80;;;;;;;8.19;87.16;98110.13;5091869;28;20020;-47
2022/11/21 07:10:42;;;;;;;20.40;9.70;;;;;;;8.22;87.55;98111.53;5092339;28;20077;-47
2022/11/21 07:13:23;;;;;;;13.27;6.97;;;;;;;8.32;87.48;98111.13;5094707;28;20024;-47
2022/11/21 07:15:52;;;;;;;10.35;6.93;;;;;;;8.39;87.10;98115.38;5095920;28;20028;-48
2022/11/21 07:18:21;;;;;;;12.07;8.45;;;;;;;8.42;86.83;98116.81;5095822;28;20032;-48
2022/11/21 07:20:48;;;;;;;11.48;4.80;;;;;;;8.40;84.69;98116.19;5096112;28;20082;-47
2022/11/21 07:23:14;;;;;;;10.85;7.38;;;;;;;8.31;84.56;98110.34;5095838;28;20016;-47
2022/11/21 07:25:41;;;;;;;12.43;6.43;;;;;;;8.30;85.25;98094.84;5094330;28;20056;-47
2022/11/21 07:28:08;;;;;;;13.02;8.18;;;;;;;8.23;85.38;98087.00;5094465;28;20027;-48
2022/11/21 07:30:36;;;;;;;13.38;5.00;;;;;;;8.10;85.40;98082.56;5095617;28;20513;-48
2022/11/21 07:33:05;;;;;;;8.52;4.07;;;;;;;8.09;86.26;98070.50;5095645;28;20012;-47
2022/11/21 07:35:31;;;;;;;11.88;3.90;;;;;;;8.12;84.28;98064.06;5094229;28;20032;-47
2022/11/21 07:37:57;;;;;;;9.38;3.95;;;;;;;8.07;79.79;98056.84;5095432;28;20032;-48
2022/11/21 07:40:23;;;;;;;5.63;3.03;;;;;;;7.99;77.65;98049.19;5094156;28;20028;-48
2022/11/21 07:42:48;;;;;;;6.75;3.67;;;;;;;7.91;77.58;98033.72;5095478;28;20028;-48
2022/11/21 07:45:15;;;;;;;12.05;4.05;;;;;;;7.86;78.81;98017.81;5095399;28;20092;-47
2022/11/21 07:47:41;;;;;;;11.63;3.75;;;;;;;7.81;76.99;98036.69;5095359;28;20099;-47
2022/11/21 07:50:09;;;;;;;9.10;4.55;;;;;;;7.73;76.17;98034.28;5095278;28;20031;-47
2022/11/21 07:52:35;;;;;;;8.50;3.33;;;;;;;7.71;77.76;98036.28;5093936;28;20082;-47
2022/11/21 07:55:01;;;;;;;4.95;2.85;;;;;;;7.73;76.14;98021.22;5095242;28;20059;-47
2022/11/21 07:57:27;;;;;;;7.22;3.40;;;;;;;7.79;77.88;97989.09;5095048;28;20107;-47
2022/11/21 07:59:54;;;;;;;10.55;3.75;;;;;;;7.76;75.03;97971.97;5095180;28;20397;-47
2022/11/21 08:02:21;;;;;;;13.98;4.47;;;;;;;7.58;74.80;97958.69;5095067;28;20073;-47
2022/11/21 08:04:47;;;;;;;11.23;4.60;;;;;;;7.46;75.31;97957.69;5095063;28;20036;-47
2022/11/21 08:07:14;;;;;;;10.52;4.75;;;;;;;7.44;76.32;97955.25;5094969;28;20081;-47
2022/11/21 08:09:40;;;;;;;9.38;4.25;;;;;;;7.62;78.09;97965.13;5094930;28;20111;-47
2022/11/21 08:12:06;;;;;;;9.45;4.65;;;;;;;7.94;77.56;97958.31;5093615;28;20115;-48
2022/11/21 08:14:32;;;;;;;4.90;3.03;;;;;;;8.07;74.45;97941.84;5094897;28;20028;-47
2022/11/21 08:16:58;;;;;;;9.43;4.10;;;;;;;8.11;73.07;97942.22;5094698;28;20089;-48
2022/11/21 08:19:24;;;;;;;9.10;3.42;;;;;;;8.23;74.38;97929.34;5094766;28;20420;-47
2022/11/21 08:21:50;;;;;;;9.18;3.90;;;;;;;8.38;74.15;97914.25;5093057;28;20439;-48
2022/11/21 08:24:16;;;;;;;7.60;3.88;;;;;;;8.55;74.74;97902.38;5093090;28;20067;-47
2022/11/21 08:26:45;;;;;;;6.53;3.20;;;;;;;8.74;73.23;97897.28;5094528;28;20016;-48
2022/11/21 08:29:14;;;;;;;8.40;3.30;;;;;;;8.87;72.40;97888.53;5094626;28;20099;-48
2022/11/21 08:31:40;;;;;;;14.63;4.28;;;;;;;8.95;72.05;97880.44;5094545;28;20020;-48
2022/11/21 08:34:06;;;;;;;4.68;3.38;;;;;;;8.95;71.75;97868.19;5094445;28;20073;-48
2022/11/21 08:36:32;;;;;;;9.30;3.15;;;;;;;8.94;68.60;97861.34;5094380;28;20024;-48
2022/11/21 08:38:58;;;;;;;7.35;2.60;;;;;;;8.86;67.46;97855.56;5093039;28;20127;-48
2022/11/21 08:44:07;;;;;;;11.45;3.63;;;;;;;8.70;66.91;97860.25;5094362;28;20059;-47
2022/11/21 08:46:36;;;;;;;8.18;3.10;;;;;;;8.75;67.55;97857.00;5092885;28;20493;-47
2022/11/21 08:49:03;;;;;;;9.43;2.75;;;;;;;8.86;66.51;97835.44;5094458;28;20049;-48
2022/11/21 08:51:29;;;;;;;12.63;3.80;;;;;;;8.94;66.44;97811.63;5093995;28;20125;-48
2022/11/21 08:53:55;;;;;;;21.30;4.28;;;;;;;9.15;67.02;97788.72;5094391;28;20020;-48
2022/11/21 08:56:20;;;;;;;7.65;3.35;;;;;;;9.10;65.08;97775.50;5094088;28;20024;-48
2022/11/21 08:58:46;;;;;;;12.95;3.95;;;;;;;8.90;66.47;97771.19;5092594;28;20028;-47
2022/11/21 09:01:11;;;;;;;11.02;3.25;;;;;;;8.86;67.73;97777.88;5093960;28;20104;-48
2022/11/21 09:03:37;;;;;;;6.88;3.45;;;;;;;9.13;69.67;97798.59;5092576;28;20031;-48
2022/11/21 09:06:04;;;;;;;10.10;4.78;;;;;;;9.44;69.27;97795.16;5093864;28;20127;-48
2022/11/21 09:08:30;;;;;;;11.63;4.20;;;;;;;9.77;69.85;97786.97;5094026;28;20035;-47
2022/11/21 09:10:56;;;;;;;25.33;5.07;;;;;;;10.30;70.19;97784.81;5092446;28;20402;-48
2022/11/21 09:13:22;;;;;;;11.20;4.70;;;;;;;10.79;69.22;97789.00;5093678;28;20024;-48
2022/11/21 09:18:31;;;;;;;11.50;3.50;;;;;;;11.00;68.67;97771.13;5093574;28;20497;-48
2022/11/21 09:20:57;;;;;;;8.10;3.55;;;;;;;10.98;67.58;97781.84;5092337;28;20028;-48
2022/11/21 09:23:23;;;;;;;6.70;3.17;;;;;;;10.88;66.23;97778.97;5092193;28;20497;-47
2022/11/21 09:25:49;;;;;;;6.22;3.00;;;;;;;10.77;65.34;97785.00;5091905;28;20142;-48
2022/11/21 09:28:14;;;;;;;8.60;3.50;;;;;;;10.75;65.75;97789.69;5093439;28;20394;-48
2022/11/21 09:30:41;;;;;;;6.68;3.20;;;;;;;10.72;65.80;97798.00;5093426;28;20016;-48
2022/11/21 09:33:10;;;;;;;10.75;3.60;;;;;;;10.76;65.46;97813.06;5092974;28;20577;-48
2022/11/21 09:35:36;;;;;;;7.93;3.60;;;;;;;10.84;65.82;97809.31;5091637;28;20076;-47
2022/11/21 09:38:02;;;;;;;12.93;3.30;;;;;;;10.94;66.04;97799.09;5093165;28;20032;-47
2022/11/21 09:40:30;;;;;;;9.63;2.13;;;;;;;11.11;65.35;97799.25;5091852;28;20035;-48
2022/11/21 09:43:19;;;;;;;9.20;1.85;;;;;;;11.29;62.59;97784.41;5093119;28;20028;-47
2022/11/21 09:45:48;;;;;;;10.23;2.53;;;;;;;11.47;62.18;97781.72;5091842;28;20048;-47
2022/11/21 09:48:30;;;;;;;6.75;2.13;;;;;;;11.50;60.96;97780.44;5091690;28;20032;-47
2022/11/21 09:51:03;;;;;;;9.75;1.90;;;;;;;11.44;60.50;97776.09;5091727;28;20124;-47
2022/11/21 09:53:45;;;;;;;5.20;2.10;;;;;;;11.35;59.95;97771.19;5091648;28;20038;-47
2022/11/21 09:56:14;;;;;;;11.43;1.90;;;;;;;11.36;60.53;97764.91;5091583;28;20032;-48
2022/11/21 09:59:25;;;;;;;9.40;2.38;;;;;;;11.42;60.28;97765.03;5092744;28;20024;-47
2022/11/21 10:01:51;;;;;;;7.85;1.67;;;;;;;11.51;59.74;97759.22;5076885;28;20039;-47
2022/11/21 10:04:16;;;;;;;4.63;2.67;;;;;;;11.50;57.47;97754.97;5091380;28;20028;-47
2022/11/21 10:07:11;;;;;;;9.05;2.22;;;;;;;11.50;58.42;97754.19;5092696;28;20100;-47
2022/11/21 10:10:05;;;;;;;7.97;1.73;;;;;;;11.58;56.57;97757.25;5092198;28;20044;-47
2022/11/21 10:13:15;;;;;;;7.13;1.80;;;;;;;11.36;56.39;97753.59;5081597;28;20047;-48
2022/11/21 10:15:59;;;;;;;4.50;1.88;;;;;;;11.10;56.63;97741.69;5060386;28;20088;-48
2022/11/21 10:18:36;;;;;;;6.15;2.17;;;;;;;10.93;56.67;97729.25;5091113;28;20024;-48
2022/11/21 10:21:23;;;;;;;16.17;6.10;;;;;;;10.80;58.35;97724.19;5092733;28;20036;-48
2022/11/21 10:24:29;;;;;;;14.85;3.38;;;;;;;10.72;58.58;97721.88;5092098;28;20051;-48
2022/11/21 10:27:15;;;;;;;11.43;2.70;;;;;;;10.67;58.83;97708.66;5091699;28;20107;-48
2022/11/21 10:29:49;;;;;;;10.25;4.65;;;;;;;10.64;59.11;97694.16;5091563;28;20032;-47
2022/11/21 10:32:29;;;;;;;13.00;2.80;;;;;;;10.66;59.47;97686.06;5091506;28;20028;-47
2022/11/21 10:35:00;;;;;;;8.43;2.70;;;;;;;10.72;58.73;97677.28;5091536;28;20039;-48
2022/11/21 10:37:36;;;;;;;9.85;2.25;;;;;;;10.78;58.72;97668.50;5091420;28;20035;-48
2022/11/21 10:40:15;;;;;;;6.13;1.52;;;;;;;10.83;57.18;97652.88;5091457;28;20020;-47
2022/11/21 10:46:08;;;;;;;3.08;1.33;;;;;;;10.59;58.21;97631.06;5091479;28;20438;-47
2022/11/21 10:48:34;;;;;;;14.23;5.57;;;;;;;10.70;59.42;97621.59;5091268;28;20081;-47
2022/11/21 10:51:34;;;;;;;8.13;2.30;;;;;;;10.87;58.04;97613.88;5091203;28;20659;-48
2022/11/21 10:57:17;;;;;;;13.05;2.08;;;;;;;11.07;56.80;97582.00;5091403;28;20085;-47
2022/11/21 10:59:59;;;;;;;6.68;1.90;;;;;;;11.21;58.04;97580.72;5091147;28;20482;-47
2022/11/21 11:02:25;;;;;;;6.88;2.13;;;;;;;11.38;57.93;97573.69;5089822;28;20032;-47
2022/11/21 11:05:18;;;;;;;7.38;2.47;;;;;;;11.55;56.94;97560.66;5089734;28;20030;-47
2022/11/21 11:08:03;;;;;;;9.77;2.33;;;;;;;11.65;57.09;97543.44;5091049;28;20055;-48
2022/11/21 11:10:31;;;;;;;9.07;2.85;;;;;;;11.62;56.39;97544.72;5089646;28;20024;-48
2022/11/21 11:16:16;;;;;;;7.35;2.58;;;;;;;11.59;56.33;97526.81;5090193;28;20046;-48
2022/11/21 11:18:46;;;;;;;10.63;2.65;;;;;;;11.52;55.42;97516.44;5089733;28;20513;-48
2022/11/21 11:21:20;;;;;;;7.80;1.70;;;;;;;11.48;54.89;97511.88;5090750;28;20509;-48
2022/11/21 11:23:48;;;;;;;8.47;2.00;;;;;;;11.41;55.99;97498.91;5037874;28;1503047;-48
2022/11/21 11:26:23;;;;;;;5.53;1.63;;;;;;;11.38;55.64;97508.03;5091650;28;20055;-48
2022/11/21 11:28:49;;;;;;;11.07;2.42;;;;;;;11.34;55.19;97495.59;5091751;28;20103;-48
2022/11/21 11:31:15;;;;;;;5.65;1.67;;;;;;;11.29;53.94;97490.25;5091796;28;20065;-48
2022/11/21 11:33:53;;;;;;;6.18;1.90;;;;;;;11.30;53.08;97492.66;5073505;28;20024;-48
2022/11/21 11:36:34;;;;;;;7.63;1.90;;;;;;;11.21;53.10;97496.69;5091773;28;20095;-47
2022/11/21 11:39:15;;;;;;;4.60;1.30;;;;;;;11.12;53.09;97498.88;5091459;28;20024;-47
2022/11/21 11:47:57;;;;;;;4.72;2.33;;;;;;;10.81;53.22;97465.19;5086150;28;20051;-48
2022/11/21 11:50:28;;;;;;;6.90;1.48;;;;;;;10.72;53.88;97455.03;5091428;28;20025;-47
2022/11/21 11:53:06;;;;;;;3.97;1.10;;;;;;;10.70;53.84;97466.78;5091473;28;20074;-47
2022/11/21 11:56:01;;;;;;;8.40;2.05;;;;;;;10.58;54.52;97469.41;5090173;28;20022;-48
2022/11/21 11:58:46;;;;;;;6.70;1.67;;;;;;;10.60;54.28;97451.63;5094538;28;20126;-47
2022/11/21 12:01:54;;;;;;;5.70;1.48;;;;;;;10.57;54.92;97439.78;5093561;28;20028;-47
2022/11/21 12:04:22;;;;;;;13.65;1.95;;;;;;;10.67;53.47;97443.66;5082961;28;20054;-48
2022/11/21 12:07:05;;;;;;;6.60;1.60;;;;;;;10.65;54.04;97441.25;5095071;28;20027;-48